Dades meteomassalio
Diari Summary for Setembre 11, 2017 Units:  English    Metric   Both
« Previous Day
Next Day »
Diari Semanal Mensual Anual Personalitzat
  Maxima: Minima: Mijana:
Temperatura: TemperatureC °F 10.0 °F 20.6 °F
Rosada: DewpointC °F 2.7 °F 10 °F
Humitat: Humidity % 41 % 51 %
Velocitat del vent: WindSpeedKMH mph 0.0 mph 17.7 mph
Racha vent: WindSpeedGustKMH mph - -
Vent:- - SW
Pressio: PressurehPa in 1011.7 in -
Pluja: 0.0 in    
Historical Graphs
 
 
Tabular Data for Setembre 11, 2017
Time Temperature Dew Point Pressure Wind Wind Speed Wind Gust Humidity Rainfall Rate (Hourly) solar Conditions
TemperatureC °F DewpointC °F PressurehPa in Calm     Humidity % HourlyPrecipMM in SolarRadiationWatts/m^2 W/m2 Conditions
00:04 18.3 °F 7.7 °F 1015.5 in SSW 22.2 mph 22.2 mph 50 % 0.0 in 0.0 W/m2 CLR
00:09 18.9 °F 8.2 °F 1015.5 in SW 18.5 mph 18.5 mph 50 % 0.0 in 0.0 W/m2 CLR
00:14 18.3 °F 7.7 °F 1015.8 in SSW 14.8 mph 14.8 mph 50 % 0.0 in 0.0 W/m2 CLR
00:19 18.3 °F 8.0 °F 1015.5 in SSW 18.5 mph 18.5 mph 51 % 0.0 in 0.0 W/m2 CLR
00:24 18.3 °F 8.0 °F 1015.5 in SSW 18.5 mph 18.5 mph 51 % 0.0 in 0.0 W/m2 CLR
00:29 18.3 °F 8.0 °F 1015.5 in SSW 14.8 mph 14.8 mph 51 % 0.0 in 0.0 W/m2 CLR
00:34 18.3 °F 8.0 °F 1015.5 in SSW 16.7 mph 16.7 mph 51 % 0.0 in 0.0 W/m2 CLR
00:39 18.3 °F 8.0 °F 1015.5 in SW 14.8 mph 14.8 mph 51 % 0.0 in 0.0 W/m2 CLR
00:44 18.3 °F 8.0 °F 1015.8 in SSW 14.8 mph 14.8 mph 51 % 0.0 in 0.0 W/m2 CLR
00:49 18.3 °F 8.0 °F 1015.5 in SSW 16.7 mph 16.7 mph 51 % 0.0 in 0.0 W/m2 CLR
00:54 17.8 °F 7.5 °F 1015.8 in SSW 18.5 mph 18.5 mph 51 % 0.0 in 0.0 W/m2 CLR
00:59 17.8 °F 7.5 °F 1015.5 in SSW 16.7 mph 16.7 mph 51 % 0.0 in 0.0 W/m2 CLR
01:04 17.8 °F 7.5 °F 1015.8 in SSW 14.8 mph 14.8 mph 51 % 0.0 in 0.0 W/m2 CLR
01:09 17.8 °F 7.5 °F 1015.8 in SSW 13.0 mph 13.0 mph 51 % 0.0 in 0.0 W/m2 CLR
01:14 17.8 °F 7.5 °F 1015.5 in South 22.2 mph 22.2 mph 51 % 0.0 in 0.0 W/m2 CLR
01:19 17.8 °F 7.5 °F 1015.5 in SSW 24.1 mph 24.1 mph 51 % 0.0 in 0.0 W/m2 CLR
01:24 17.2 °F 7.0 °F 1015.5 in SW 18.5 mph 18.5 mph 51 % 0.0 in 0.0 W/m2 CLR
01:29 17.2 °F 7.3 °F 1015.5 in SW 24.1 mph 24.1 mph 52 % 0.0 in 0.0 W/m2 CLR
01:34 17.2 °F 7.3 °F 1015.5 in SSW 17.7 mph 17.7 mph 52 % 0.0 in 0.0 W/m2 CLR
01:39 17.2 °F 7.3 °F 1015.5 in SSW 16.7 mph 16.7 mph 52 % 0.0 in 0.0 W/m2 CLR
01:44 17.2 °F 7.3 °F 1015.5 in SSW 14.8 mph 14.8 mph 52 % 0.0 in 0.0 W/m2 CLR
01:49 17.2 °F 7.6 °F 1015.1 in SW 14.5 mph 14.5 mph 53 % 0.0 in 0.0 W/m2 CLR
01:54 16.7 °F 7.1 °F 1015.5 in SSW 9.3 mph 9.3 mph 53 % 0.0 in 0.0 W/m2 CLR
01:59 16.7 °F 7.1 °F 1015.1 in SSW 11.1 mph 11.1 mph 53 % 0.0 in 0.0 W/m2 CLR
02:04 16.1 °F 6.8 °F 1015.1 in Calm     54 % 0.0 in 0.0 W/m2 CLR
02:09 15.6 °F 6.3 °F 1015.1 in SSW 14.8 mph 14.8 mph 54 % 0.0 in 0.0 W/m2 CLR
02:14 15.0 °F 5.8 °F 1015.1 in SSW 9.7 mph 9.7 mph 54 % 0.0 in 0.0 W/m2 CLR
02:19 15.0 °F 5.8 °F 1015.1 in South 11.1 mph 11.1 mph 54 % 0.0 in 0.0 W/m2 CLR
02:24 15.6 °F 6.6 °F 1015.1 in SSE 5.6 mph 5.6 mph 55 % 0.0 in 0.0 W/m2 CLR
02:29 16.1 °F 7.3 °F 1015.1 in Calm     56 % 0.0 in 0.0 W/m2 CLR
02:34 15.6 °F 7.1 °F 1015.1 in Calm     57 % 0.0 in 0.0 W/m2 CLR
02:39 15.6 °F 7.1 °F 1015.1 in Calm     57 % 0.0 in 0.0 W/m2 CLR
02:44 15.6 °F 6.8 °F 1015.1 in SSW 1.9 mph   56 % 0.0 in 0.0 W/m2 CLR
02:49 15.0 °F 6.3 °F 1015.1 in South 5.6 mph 5.6 mph 56 % 0.0 in 0.0 W/m2 CLR
02:54 15.0 °F 6.0 °F 1015.1 in SSE 5.6 mph 5.6 mph 55 % 0.0 in 0.0 W/m2 CLR
02:59 15.0 °F 6.0 °F 1014.8 in Calm     55 % 0.0 in 0.0 W/m2 CLR
03:04 15.6 °F 6.6 °F 1015.1 in Calm     55 % 0.0 in 0.0 W/m2 CLR
03:06 15.6 °F 6.6 °F 1015.1 in Calm     55 % 0.0 in 0.0 W/m2 CLR
03:11 15.6 °F 6.8 °F 1015.1 in Calm     56 % 0.0 in 0.0 W/m2 CLR
03:16 15.6 °F 6.8 °F 1015.1 in Calm     56 % 0.0 in 0.0 W/m2 CLR
03:21 15.6 °F 6.8 °F 1014.8 in Calm     56 % 0.0 in 0.0 W/m2 CLR
03:26 15.6 °F 6.8 °F 1014.8 in SSW 14.5 mph 14.5 mph 56 % 0.0 in 0.0 W/m2 CLR
03:31 16.1 °F 6.8 °F 1014.8 in SSW 16.7 mph 16.7 mph 54 % 0.0 in 0.0 W/m2 CLR
03:36 16.1 °F 6.5 °F 1014.8 in SSW 16.7 mph 16.7 mph 53 % 0.0 in 0.0 W/m2 CLR
03:41 15.6 °F 6.0 °F 1014.8 in SSW 18.5 mph 18.5 mph 53 % 0.0 in 0.0 W/m2 CLR
03:46 15.6 °F 6.0 °F 1014.8 in South 12.9 mph 12.9 mph 53 % 0.0 in 0.0 W/m2 CLR
03:51 15.0 °F 5.5 °F 1014.4 in South 9.7 mph 9.7 mph 53 % 0.0 in 0.0 W/m2 CLR
03:56 15.6 °F 6.0 °F 1014.4 in South 5.6 mph 5.6 mph 53 % 0.0 in 0.0 W/m2 CLR
04:01 16.1 °F 6.5 °F 1014.4 in SSW 11.3 mph 11.3 mph 53 % 0.0 in 0.0 W/m2 CLR
04:06 16.1 °F 6.8 °F 1014.8 in South 18.5 mph 18.5 mph 54 % 0.0 in 0.0 W/m2 CLR
04:11 16.1 °F 6.8 °F 1014.4 in South 3.7 mph 3.7 mph 54 % 0.0 in 0.0 W/m2 CLR
04:16 15.6 °F 6.8 °F 1014.8 in SSW 16.7 mph 16.7 mph 56 % 0.0 in 0.0 W/m2 CLR
04:21 15.0 °F 6.3 °F 1014.4 in SSW 18.5 mph 18.5 mph 56 % 0.0 in 0.0 W/m2 CLR
04:26 15.0 °F 6.3 °F 1014.4 in SW 19.3 mph 19.3 mph 56 % 0.0 in 0.0 W/m2 CLR
04:31 15.6 °F 6.8 °F 1014.4 in SSW 20.4 mph 20.4 mph 56 % 0.0 in 0.0 W/m2 CLR
04:36 16.1 °F 7.3 °F 1014.4 in SSW 18.5 mph 18.5 mph 56 % 0.0 in 0.0 W/m2 CLR
04:41 16.7 °F 7.8 °F 1014.4 in SSW 16.1 mph 16.1 mph 56 % 0.0 in 0.0 W/m2 CLR
04:42 16.7 °F 7.8 °F 1014.4 in SW 16.7 mph 16.7 mph 56 % 0.0 in 0.0 W/m2 CLR
04:47 16.7 °F 7.8 °F 1014.4 in SSW 16.7 mph 16.7 mph 56 % 0.0 in 0.0 W/m2 CLR
04:52 16.7 °F 8.1 °F 1014.1 in SSW 18.5 mph 18.5 mph 57 % 0.0 in 0.0 W/m2 CLR
04:57 16.7 °F 8.1 °F 1014.1 in SSW 14.8 mph 14.8 mph 57 % 0.0 in 0.0 W/m2 CLR
05:02 16.1 °F 7.6 °F 1014.4 in SSW 13.0 mph 13.0 mph 57 % 0.0 in 0.0 W/m2 CLR
05:07 16.1 °F 7.6 °F 1014.1 in SSW 18.5 mph 18.5 mph 57 % 0.0 in 0.0 W/m2 CLR
05:12 15.6 °F 7.1 °F 1014.1 in SSW 16.7 mph 16.7 mph 57 % 0.0 in 0.0 W/m2 CLR
05:20 15.0 °F 6.6 °F 1014.1 in SSW 16.7 mph 16.7 mph 57 % 0.0 in 0.0 W/m2 CLR
05:23 15.0 °F 6.6 °F 1014.1 in SW 19.3 mph 19.3 mph 57 % 0.0 in 0.0 W/m2 CLR
05:26 15.0 °F 6.3 °F 1014.1 in SSW 22.2 mph 22.2 mph 56 % 0.0 in 0.0 W/m2 CLR
05:27 15.0 °F 6.3 °F 1014.1 in SSW 18.5 mph 18.5 mph 56 % 0.0 in 0.0 W/m2 CLR
05:31 15.0 °F 6.3 °F 1014.1 in SSW 18.5 mph 18.5 mph 56 % 0.0 in 0.0 W/m2 CLR
05:35 14.4 °F 5.8 °F 1014.1 in SSW 16.7 mph 16.7 mph 56 % 0.0 in 0.0 W/m2 CLR
05:40 14.4 °F 5.8 °F 1014.1 in SSW 18.5 mph 18.5 mph 56 % 0.0 in 0.0 W/m2 CLR
05:45 13.9 °F 5.2 °F 1014.1 in SSW 14.8 mph 14.8 mph 56 % 0.0 in 0.0 W/m2 CLR
05:50 13.3 °F 4.7 °F 1014.1 in SW 17.7 mph 17.7 mph 56 % 0.0 in 0.0 W/m2 CLR
05:55 13.3 °F 5.0 °F 1014.1 in SW 16.7 mph 16.7 mph 57 % 0.0 in 0.0 W/m2 CLR
06:00 12.8 °F 4.4 °F 1014.1 in SSW 18.5 mph 18.5 mph 57 % 0.0 in 0.0 W/m2 CLR
06:05 12.8 °F 4.4 °F 1013.8 in SW 18.5 mph 18.5 mph 57 % 0.0 in 0.0 W/m2 CLR
06:10 12.2 °F 3.9 °F 1014.1 in SW 14.8 mph 14.8 mph 57 % 0.0 in 0.0 W/m2 CLR
06:15 12.2 °F 3.9 °F 1014.1 in SW 16.7 mph 16.7 mph 57 % 0.0 in 0.0 W/m2 CLR
06:20 12.2 °F 3.9 °F 1013.8 in SW 14.8 mph 14.8 mph 57 % 0.0 in 0.0 W/m2 CLR
06:26 12.2 °F 4.2 °F 1014.1 in SSW 16.7 mph 16.7 mph 58 % 0.0 in 0.0 W/m2 CLR
06:31 12.2 °F 4.2 °F 1013.8 in SW 16.7 mph 16.7 mph 58 % 0.0 in 0.0 W/m2 CLR
06:36 11.7 °F 3.7 °F 1013.8 in SW 18.5 mph 18.5 mph 58 % 0.0 in 0.0 W/m2 CLR
06:41 11.7 °F 3.7 °F 1013.8 in SW 18.5 mph 18.5 mph 58 % 0.0 in 0.0 W/m2 CLR
06:46 11.7 °F 3.7 °F 1013.8 in SSW 11.1 mph 11.1 mph 58 % 0.0 in 0.0 W/m2 CLR
06:51 11.7 °F 3.7 °F 1013.8 in Calm     58 % 0.0 in 0.0 W/m2 CLR
06:56 11.1 °F 3.4 °F 1014.1 in Calm     59 % 0.0 in 0.0 W/m2 CLR
07:01 11.1 °F 3.9 °F 1014.1 in Calm     61 % 0.0 in 0.0 W/m2 CLR
07:06 11.1 °F 4.3 °F 1014.1 in Calm     63 % 0.0 in 0.0 W/m2 CLR
07:11 11.1 °F 4.8 °F 1014.1 in Calm     65 % 0.0 in 0.0 W/m2 CLR
07:16 11.1 °F 5.0 °F 1014.1 in Calm     66 % 0.0 in 0.0 W/m2 CLR
07:21 10.6 °F 4.4 °F 1014.1 in Calm     66 % 0.0 in 0.0 W/m2 CLR
07:26 10.6 °F 4.7 °F 1014.1 in Calm     67 % 0.0 in 0.0 W/m2 OVC
07:31 10.6 °F 4.7 °F 1014.1 in Calm     67 % 0.0 in 0.0 W/m2 OVC
07:36 10.6 °F 4.9 °F 1014.1 in Calm     68 % 0.0 in 5.0 W/m2 OVC
07:41 10.6 °F 4.9 °F 1014.1 in Calm     68 % 0.0 in 7.0 W/m2 BKN
07:46 10.6 °F 5.1 °F 1014.1 in Calm     69 % 0.0 in 9.0 W/m2 BKN
07:51 10.0 °F 4.6 °F 1014.1 in Calm     69 % 0.0 in 11.0 W/m2 BKN
07:56 10.6 °F 5.3 °F 1014.1 in Calm     70 % 0.0 in 12.0 W/m2 BKN
08:01 10.6 °F 5.1 °F 1014.1 in Calm     69 % 0.0 in 16.0 W/m2 BKN
08:06 10.6 °F 5.1 °F 1014.1 in Calm     69 % 0.0 in 19.0 W/m2 BKN
08:11 10.6 °F 4.7 °F 1014.1 in Calm     67 % 0.0 in 32.0 W/m2 BKN
08:16 10.6 °F 4.2 °F 1014.1 in Calm     65 % 0.0 in 44.0 W/m2 BKN
08:21 11.1 °F 4.3 °F 1014.1 in Calm     63 % 0.0 in 53.0 W/m2 SCT
08:26 11.1 °F 3.4 °F 1014.1 in Calm     59 % 0.0 in 60.0 W/m2 SCT
08:31 11.1 °F 2.9 °F 1014.1 in Calm   0.5 mph 57 % 0.0 in 49.0 W/m2 SCT
08:36 11.7 °F 2.7 °F 1014.1 in South 5.6 mph 5.6 mph 54 % 0.0 in 25.0 W/m2 BKN
08:41 12.2 °F 2.7 °F 1014.4 in South 7.4 mph 7.4 mph 52 % 0.0 in 25.0 W/m2 BKN
08:46 13.9 °F 3.6 °F 1014.4 in South 8.0 mph 8.0 mph 50 % 0.0 in 28.0 W/m2 BKN
08:51 14.4 °F 3.6 °F 1014.4 in SSW 7.4 mph 7.4 mph 48 % 0.0 in 156.0 W/m2 BKN
08:56 15.6 °F 3.9 °F 1014.4 in SSW 18.5 mph 18.5 mph 46 % 0.0 in 174.0 W/m2 FEW
09:01 16.1 °F 4.2 °F 1014.4 in South 13.0 mph 13.0 mph 45 % 0.0 in 195.0 W/m2 CLR
09:06 17.2 °F 4.8 °F 1014.4 in South 18.5 mph 18.5 mph 44 % 0.0 in 213.0 W/m2 CLR
09:12 17.8 °F 5.3 °F 1014.4 in South 20.4 mph 20.4 mph 44 % 0.0 in 227.0 W/m2 CLR
09:17 18.3 °F 5.8 °F 1014.4 in SSW 11.3 mph 11.3 mph 44 % 0.0 in 246.0 W/m2 CLR
09:22 18.9 °F 6.4 °F 1014.1 in SSW 14.8 mph 14.8 mph 44 % 0.0 in 264.0 W/m2 CLR
09:27 19.4 °F 6.9 °F 1014.1 in SSW 18.5 mph 18.5 mph 44 % 0.0 in 279.0 W/m2 CLR
09:32 20.0 °F 7.4 °F 1014.1 in SSW 20.4 mph 20.4 mph 44 % 0.0 in 294.0 W/m2 CLR
09:37 20.6 °F 7.9 °F 1014.1 in SSW 24.1 mph 24.1 mph 44 % 0.0 in 309.0 W/m2 CLR
09:42 20.6 °F 7.9 °F 1014.1 in South 20.4 mph 20.4 mph 44 % 0.0 in 327.0 W/m2 CLR
09:47 21.1 °F 8.7 °F 1014.1 in SSW 18.5 mph 18.5 mph 45 % 0.0 in 343.0 W/m2 CLR
09:52 21.1 °F 8.7 °F 1014.1 in South 13.0 mph 13.0 mph 45 % 0.0 in 357.0 W/m2 CLR
09:57 21.7 °F 9.2 °F 1014.1 in SSW 22.2 mph 22.2 mph 45 % 0.0 in 369.0 W/m2 CLR
10:02 21.7 °F 9.6 °F 1014.1 in South 25.9 mph 25.9 mph 46 % 0.0 in 385.0 W/m2 CLR
10:07 21.7 °F 9.6 °F 1014.1 in SSW 24.1 mph 24.1 mph 46 % 0.0 in 403.0 W/m2 CLR
10:12 22.2 °F 10.1 °F 1014.1 in SW 31.5 mph 31.5 mph 46 % 0.0 in 418.0 W/m2 CLR
10:17 22.2 °F 10.1 °F 1014.1 in SSW 25.9 mph 25.9 mph 46 % 0.0 in 434.0 W/m2 CLR
10:22 22.2 °F 10.1 °F 1014.1 in SSW 24.1 mph 24.1 mph 46 % 0.0 in 448.0 W/m2 CLR
10:27 22.8 °F 10.9 °F 1014.1 in SSW 22.2 mph 22.2 mph 47 % 0.0 in 462.0 W/m2 CLR
10:32 22.8 °F 10.6 °F 1014.1 in SW 29.6 mph 29.6 mph 46 % 0.0 in 475.0 W/m2 CLR
10:37 23.3 °F 11.4 °F 1014.1 in SW 27.8 mph 27.8 mph 47 % 0.0 in 489.0 W/m2 CLR
10:42 23.3 °F 11.4 °F 1014.1 in SW 31.5 mph 31.5 mph 47 % 0.0 in 504.0 W/m2 CLR
10:47 23.3 °F 11.7 °F 1014.1 in SW 33.8 mph 33.8 mph 48 % 0.0 in 519.0 W/m2 CLR
10:52 23.3 °F 11.4 °F 1014.1 in SSW 24.1 mph 24.1 mph 47 % 0.0 in 531.0 W/m2 CLR
10:57 23.3 °F 11.4 °F 1014.4 in SW 24.1 mph 24.1 mph 47 % 0.0 in 545.0 W/m2 CLR
11:02 23.9 °F 11.9 °F 1014.1 in SW 29.6 mph 29.6 mph 47 % 0.0 in 557.0 W/m2 CLR
11:07 23.9 °F 11.9 °F 1014.1 in SSW 24.1 mph 24.1 mph 47 % 0.0 in 570.0 W/m2 CLR
11:12 23.9 °F 12.2 °F 1014.1 in SW 24.1 mph 24.1 mph 48 % 0.0 in 580.0 W/m2 CLR
11:17 24.4 °F 12.4 °F 1014.1 in South 20.4 mph 20.4 mph 47 % 0.0 in 592.0 W/m2 CLR
11:22 24.4 °F 12.7 °F 1014.1 in SW 24.1 mph 24.1 mph 48 % 0.0 in 606.0 W/m2 CLR
11:27 24.4 °F 12.4 °F 1014.1 in WSW 22.5 mph 22.5 mph 47 % 0.0 in 617.0 W/m2 CLR
11:32 25.0 °F 13.2 °F 1014.1 in WSW 31.5 mph 31.5 mph 48 % 0.0 in 628.0 W/m2 CLR
11:37 25.0 °F 13.2 °F 1014.1 in WSW 20.9 mph 20.9 mph 48 % 0.0 in 638.0 W/m2 CLR
11:42 25.0 °F 12.9 °F 1014.1 in WSW 27.8 mph 27.8 mph 47 % 0.0 in 650.0 W/m2 CLR
11:47 25.6 °F 13.4 °F 1014.1 in SW 29.6 mph 29.6 mph 47 % 0.0 in 659.0 W/m2 CLR
11:52 25.6 °F 13.4 °F 1014.1 in West 25.9 mph 25.9 mph 47 % 0.0 in 668.0 W/m2 CLR
11:57 26.1 °F 13.6 °F 1014.1 in SW 14.8 mph 14.8 mph 46 % 0.0 in 677.0 W/m2 CLR
12:02 26.1 °F 13.6 °F 1014.1 in SW 29.6 mph 29.6 mph 46 % 0.0 in 687.0 W/m2 CLR
12:07 26.1 °F 13.6 °F 1014.1 in SW 22.2 mph 22.2 mph 46 % 0.0 in 696.0 W/m2 CLR
12:12 25.6 °F 12.7 °F 1014.1 in West 29.6 mph 29.6 mph 45 % 0.0 in 705.0 W/m2 CLR
12:17 25.6 °F 13.1 °F 1014.1 in West 33.3 mph 33.3 mph 46 % 0.0 in 712.0 W/m2 CLR
12:22 25.0 °F 12.9 °F 1014.1 in WSW 18.5 mph 18.5 mph 47 % 0.0 in 717.0 W/m2 CLR
12:27 25.6 °F 13.1 °F 1014.1 in WSW 31.5 mph 31.5 mph 46 % 0.0 in 728.0 W/m2 CLR
12:32 25.6 °F 13.4 °F 1014.1 in West 22.2 mph 22.2 mph 47 % 0.0 in 735.0 W/m2 CLR
12:37 25.6 °F 13.1 °F 1013.8 in SW 22.5 mph 22.5 mph 46 % 0.0 in 737.0 W/m2 CLR
12:42 25.6 °F 13.1 °F 1013.8 in West 25.9 mph 25.9 mph 46 % 0.0 in 745.0 W/m2 CLR
12:47 26.1 °F 13.2 °F 1013.8 in SW 25.9 mph 25.9 mph 45 % 0.0 in 751.0 W/m2 CLR
12:52 26.7 °F 13.7 °F 1013.8 in SW 22.2 mph 22.2 mph 45 % 0.0 in 754.0 W/m2 CLR
12:57 26.7 °F 13.7 °F 1013.8 in West 31.5 mph 31.5 mph 45 % 0.0 in 761.0 W/m2 CLR
13:02 26.7 °F 14.1 °F 1013.8 in SW 27.4 mph 27.4 mph 46 % 0.0 in 766.0 W/m2 CLR
13:08 26.7 °F 13.7 °F 1013.8 in WSW 24.1 mph 24.1 mph 45 % 0.0 in 768.0 W/m2 CLR
13:13 26.7 °F 13.4 °F 1013.8 in WSW 31.5 mph 31.5 mph 44 % 0.0 in 773.0 W/m2 CLR
13:18 26.7 °F 13.7 °F 1013.8 in WSW 22.2 mph 22.2 mph 45 % 0.0 in 775.0 W/m2 CLR
13:23 26.7 °F 13.7 °F 1013.8 in West 27.8 mph 27.8 mph 45 % 0.0 in 780.0 W/m2 CLR
13:28 27.2 °F 13.9 °F 1013.8 in SW 29.6 mph 29.6 mph 44 % 0.0 in 782.0 W/m2 CLR
13:33 27.2 °F 13.9 °F 1013.8 in WSW 27.8 mph 27.8 mph 44 % 0.0 in 784.0 W/m2 CLR
13:38 27.2 °F 14.3 °F 1013.4 in SW 25.9 mph 25.9 mph 45 % 0.0 in 786.0 W/m2 CLR
13:43 27.2 °F 13.9 °F 1013.4 in SW 22.2 mph 22.2 mph 44 % 0.0 in 789.0 W/m2 CLR
13:48 27.8 °F 14.4 °F 1013.4 in SW 20.4 mph 20.4 mph 44 % 0.0 in 788.0 W/m2 CLR
13:53 27.8 °F 14.1 °F 1013.4 in WSW 29.0 mph 29.0 mph 43 % 0.0 in 789.0 W/m2 CLR
13:58 27.2 °F 13.9 °F 1013.4 in West 20.9 mph 20.9 mph 44 % 0.0 in 786.0 W/m2 CLR
14:03 27.2 °F 13.6 °F 1013.4 in WSW 31.5 mph 31.5 mph 43 % 0.0 in 789.0 W/m2 CLR
14:08 27.8 °F 14.8 °F 1013.4 in WNW 18.5 mph 18.5 mph 45 % 0.0 in 791.0 W/m2 CLR
14:13 27.2 °F 14.3 °F 1013.4 in West 20.4 mph 20.4 mph 45 % 0.0 in 793.0 W/m2 CLR
14:18 27.2 °F 13.6 °F 1013.4 in WSW 20.4 mph 20.4 mph 43 % 0.0 in 788.0 W/m2 CLR
14:23 27.2 °F 13.6 °F 1013.4 in SW 22.5 mph 22.5 mph 43 % 0.0 in 800.0 W/m2 CLR
14:28 27.2 °F 13.9 °F 1013.1 in WNW 20.4 mph 20.4 mph 44 % 0.0 in 782.0 W/m2 CLR
14:33 27.8 °F 14.1 °F 1013.4 in WSW 29.6 mph 29.6 mph 43 % 0.0 in 779.0 W/m2 CLR
14:38 27.8 °F 14.1 °F 1013.1 in SW 25.9 mph 25.9 mph 43 % 0.0 in 775.0 W/m2 CLR
14:43 27.8 °F 14.1 °F 1013.1 in WSW 22.2 mph 22.2 mph 43 % 0.0 in 773.0 W/m2 CLR
14:48 27.8 °F 14.1 °F 1013.1 in West 24.1 mph 24.1 mph 43 % 0.0 in 768.0 W/m2 CLR
14:53 28.3 °F 14.6 °F 1013.1 in West 33.3 mph 33.3 mph 43 % 0.0 in 763.0 W/m2 CLR
14:58 28.3 °F 14.2 °F 1013.1 in WSW 25.9 mph 25.9 mph 42 % 0.0 in 761.0 W/m2 CLR
15:03 27.8 °F 13.7 °F 1013.1 in West 29.6 mph 29.6 mph 42 % 0.0 in 758.0 W/m2 CLR
15:08 28.3 °F 14.2 °F 1013.1 in WSW 24.1 mph 24.1 mph 42 % 0.0 in 751.0 W/m2 CLR
15:13 28.3 °F 13.8 °F 1012.8 in West 32.2 mph 32.2 mph 41 % 0.0 in 747.0 W/m2 CLR
15:18 28.3 °F 14.2 °F 1012.8 in WSW 31.5 mph 31.5 mph 42 % 0.0 in 738.0 W/m2 CLR
15:23 28.3 °F 14.2 °F 1012.8 in WSW 24.1 mph 24.1 mph 42 % 0.0 in 729.0 W/m2 CLR
15:28 28.3 °F 13.8 °F 1012.8 in West 38.9 mph 38.9 mph 41 % 0.0 in 724.0 W/m2 CLR
15:33 28.3 °F 13.8 °F 1012.8 in West 33.3 mph 33.3 mph 41 % 0.0 in 717.0 W/m2 CLR
15:38 28.3 °F 14.2 °F 1012.8 in SW 25.9 mph 25.9 mph 42 % 0.0 in 708.0 W/m2 CLR
15:43 28.9 °F 14.7 °F 1012.8 in West 22.2 mph 22.2 mph 42 % 0.0 in 700.0 W/m2 CLR
15:48 28.3 °F 14.6 °F 1012.8 in WNW 18.5 mph 18.5 mph 43 % 0.0 in 689.0 W/m2 CLR
15:53 27.8 °F 13.7 °F 1012.4 in West 35.4 mph 35.4 mph 42 % 0.0 in 686.0 W/m2 CLR
15:58 28.3 °F 14.2 °F 1012.4 in WNW 27.8 mph 27.8 mph 42 % 0.0 in 675.0 W/m2 CLR
16:03 27.8 °F 14.4 °F 1012.4 in SW 25.9 mph 25.9 mph 44 % 0.0 in 663.0 W/m2 CLR
16:08 27.8 °F 14.1 °F 1012.4 in West 27.8 mph 27.8 mph 43 % 0.0 in 656.0 W/m2 CLR
16:13 27.8 °F 13.7 °F 1012.4 in WSW 31.5 mph 31.5 mph 42 % 0.0 in 645.0 W/m2 CLR
16:18 28.3 °F 14.9 °F 1012.4 in WSW 22.2 mph 22.2 mph 44 % 0.0 in 635.0 W/m2 CLR
16:28 27.8 °F 14.1 °F 1012.4 in West 35.2 mph 35.2 mph 43 % 0.0 in 610.0 W/m2 CLR
16:33 27.8 °F 14.4 °F 1012.4 in WSW 27.8 mph 27.8 mph 44 % 0.0 in 598.0 W/m2 CLR
16:38 27.8 °F 14.4 °F 1012.4 in West 22.2 mph 22.2 mph 44 % 0.0 in 587.0 W/m2 CLR
16:43 27.2 °F 13.9 °F 1012.1 in WNW 37.0 mph 37.0 mph 44 % 0.0 in 577.0 W/m2 CLR
16:48 27.8 °F 14.4 °F 1012.1 in West 46.3 mph 46.3 mph 44 % 0.0 in 564.0 W/m2 CLR
16:53 27.8 °F 14.4 °F 1012.1 in WNW 22.2 mph 22.2 mph 44 % 0.0 in 552.0 W/m2 CLR
16:58 27.8 °F 14.8 °F 1012.1 in WSW 31.5 mph 31.5 mph 45 % 0.0 in 541.0 W/m2 CLR
17:03 27.8 °F 14.4 °F 1012.1 in West 20.9 mph 20.9 mph 44 % 0.0 in 524.0 W/m2 CLR
17:08 27.8 °F 14.4 °F 1012.1 in West 29.6 mph 29.6 mph 44 % 0.0 in 515.0 W/m2 CLR
17:13 27.2 °F 13.9 °F 1012.1 in West 29.0 mph 29.0 mph 44 % 0.0 in 503.0 W/m2 CLR
17:18 27.2 °F 14.3 °F 1012.1 in NW 20.9 mph 20.9 mph 45 % 0.0 in 489.0 W/m2 CLR
17:23 27.8 °F 14.4 °F 1012.1 in West 22.2 mph 22.2 mph 44 % 0.0 in 476.0 W/m2 CLR
17:28 27.8 °F 14.8 °F 1012.1 in WSW 27.8 mph 27.8 mph 45 % 0.0 in 454.0 W/m2 CLR
17:33 27.8 °F 14.8 °F 1012.1 in SW 24.1 mph 24.1 mph 45 % 0.0 in 443.0 W/m2 CLR
17:38 27.8 °F 14.8 °F 1012.1 in West 20.4 mph 20.4 mph 45 % 0.0 in 431.0 W/m2 CLR
17:43 27.2 °F 14.3 °F 1012.1 in West 31.5 mph 31.5 mph 45 % 0.0 in 415.0 W/m2 CLR
17:48 27.2 °F 14.6 °F 1011.7 in WSW 18.5 mph 18.5 mph 46 % 0.0 in 397.0 W/m2 CLR
17:53 27.2 °F 14.3 °F 1012.1 in West 20.4 mph 20.4 mph 45 % 0.0 in 383.0 W/m2 CLR
17:58 27.2 °F 14.3 °F 1012.1 in WNW 27.8 mph 27.8 mph 45 % 0.0 in 367.0 W/m2 CLR
18:03 27.2 °F 14.3 °F 1012.1 in West 24.1 mph 24.1 mph 45 % 0.0 in 352.0 W/m2 CLR
18:08 26.7 °F 13.7 °F 1012.1 in WSW 24.1 mph 24.1 mph 45 % 0.0 in 334.0 W/m2 CLR
18:13 26.7 °F 13.7 °F 1012.1 in SW 16.7 mph 16.7 mph 45 % 0.0 in 318.0 W/m2 CLR
18:18 26.7 °F 13.7 °F 1012.1 in WNW 19.3 mph 19.3 mph 45 % 0.0 in 302.0 W/m2 CLR
18:24 26.1 °F 13.2 °F 1012.1 in West 22.2 mph 22.2 mph 45 % 0.0 in 288.0 W/m2 CLR
18:29 26.1 °F 13.6 °F 1012.1 in WSW 22.2 mph 22.2 mph 46 % 0.0 in 272.0 W/m2 CLR
18:34 26.1 °F 13.6 °F 1012.1 in WNW 22.5 mph 22.5 mph 46 % 0.0 in 255.0 W/m2 CLR
18:39 26.1 °F 13.6 °F 1012.1 in WNW 29.6 mph 29.6 mph 46 % 0.0 in 239.0 W/m2 CLR
18:44 26.1 °F 13.6 °F 1012.1 in WSW 22.2 mph 22.2 mph 46 % 0.0 in 223.0 W/m2 CLR
18:49 26.1 °F 13.6 °F 1012.1 in WSW 18.5 mph 18.5 mph 46 % 0.0 in 204.0 W/m2 CLR
18:54 25.6 °F 13.1 °F 1012.4 in West 22.2 mph 22.2 mph 46 % 0.0 in 183.0 W/m2 CLR
18:59 25.6 °F 13.1 °F 1012.1 in WSW 24.1 mph 24.1 mph 46 % 0.0 in 165.0 W/m2 CLR
19:04 25.6 °F 13.1 °F 1012.1 in WSW 22.5 mph 22.5 mph 46 % 0.0 in 148.0 W/m2 CLR
19:09 25.6 °F 13.4 °F 1012.1 in WSW 24.1 mph 24.1 mph 47 % 0.0 in 130.0 W/m2 CLR
19:14 25.6 °F 13.4 °F 1012.4 in WSW 25.9 mph 25.9 mph 47 % 0.0 in 111.0 W/m2 CLR
19:19 25.0 °F 12.9 °F 1012.4 in WSW 22.2 mph 22.2 mph 47 % 0.0 in 97.0 W/m2 CLR
19:24 25.0 °F 13.2 °F 1012.4 in West 24.1 mph 24.1 mph 48 % 0.0 in 79.0 W/m2 FEW
19:29 25.0 °F 13.2 °F 1012.4 in SW 22.2 mph 22.2 mph 48 % 0.0 in 62.0 W/m2 SCT
19:34 25.0 °F 13.2 °F 1012.4 in West 20.4 mph 20.4 mph 48 % 0.0 in 46.0 W/m2 SCT
19:39 24.4 °F 12.7 °F 1012.4 in West 18.5 mph 18.5 mph 48 % 0.0 in 37.0 W/m2 BKN
19:44 24.4 °F 12.7 °F 1012.4 in WSW 16.7 mph 16.7 mph 48 % 0.0 in 28.0 W/m2 BKN
19:49 24.4 °F 12.7 °F 1012.4 in WSW 22.2 mph 22.2 mph 48 % 0.0 in 19.0 W/m2 BKN
19:51 24.4 °F 13.1 °F 1012.4 in WSW 20.4 mph 20.4 mph 49 % 0.0 in 19.0 W/m2 BKN
19:56 23.9 °F 12.5 °F 1012.4 in WSW 14.8 mph 14.8 mph 49 % 0.0 in 14.0 W/m2 BKN
20:01 23.9 °F 12.8 °F 1012.4 in SW 18.5 mph 18.5 mph 50 % 0.0 in 11.0 W/m2 BKN
20:06 23.9 °F 12.8 °F 1012.4 in WSW 16.7 mph 16.7 mph 50 % 0.0 in 9.0 W/m2 BKN
20:11 23.9 °F 13.1 °F 1012.4 in SSW 13.0 mph 13.0 mph 51 % 0.0 in 7.0 W/m2 BKN
20:16 23.3 °F 12.6 °F 1012.8 in SW 14.8 mph 14.8 mph 51 % 0.0 in 5.0 W/m2 OVC
20:21 23.3 °F 12.6 °F 1012.4 in WSW 16.7 mph 16.7 mph 51 % 0.0 in 0.0 W/m2 OVC
20:26 22.8 °F 12.4 °F 1012.8 in Calm     52 % 0.0 in 0.0 W/m2 CLR
20:31 22.2 °F 11.9 °F 1012.8 in WSW 16.7 mph 16.7 mph 52 % 0.0 in 0.0 W/m2 CLR
20:36 22.2 °F 11.9 °F 1012.8 in WSW 16.7 mph 16.7 mph 52 % 0.0 in 0.0 W/m2 CLR
20:41 21.7 °F 11.7 °F 1012.8 in Calm     53 % 0.0 in 0.0 W/m2 CLR
20:46 21.7 °F 11.7 °F 1012.8 in SW 11.3 mph 11.3 mph 53 % 0.0 in 0.0 W/m2 CLR
20:51 21.1 °F 11.2 °F 1012.8 in WSW 16.7 mph 16.7 mph 53 % 0.0 in 0.0 W/m2 CLR
20:56 21.1 °F 11.2 °F 1012.8 in SW 13.0 mph 13.0 mph 53 % 0.0 in 0.0 W/m2 CLR
21:01 20.6 °F 10.9 °F 1013.1 in Calm     54 % 0.0 in 0.0 W/m2 CLR
21:06 20.6 °F 10.9 °F 1013.1 in SW 5.6 mph   54 % 0.0 in 0.0 W/m2 CLR
21:11 20.0 °F 10.7 °F 1013.1 in Calm     55 % 0.0 in 0.0 W/m2 CLR
21:16 20.0 °F 10.7 °F 1013.1 in Calm     55 % 0.0 in 0.0 W/m2 CLR
21:21 19.4 °F 10.2 °F 1013.1 in Calm     55 % 0.0 in 0.0 W/m2 CLR
21:26 19.4 °F 10.4 °F 1013.1 in WSW 11.3 mph 11.3 mph 56 % 0.0 in 0.0 W/m2 CLR
21:31 19.4 °F 10.4 °F 1013.4 in SSW 3.7 mph 3.7 mph 56 % 0.0 in 0.0 W/m2 CLR
21:36 19.4 °F 10.4 °F 1013.4 in SW 14.8 mph 14.8 mph 56 % 0.0 in 0.0 W/m2 CLR
21:41 19.4 °F 10.2 °F 1013.4 in WSW 16.1 mph 16.1 mph 55 % 0.0 in 0.0 W/m2 CLR
21:46 20.0 °F 10.7 °F 1013.8 in SW 18.5 mph 18.5 mph 55 % 0.0 in 0.0 W/m2 CLR
21:51 20.6 °F 11.4 °F 1013.8 in WSW 16.7 mph 16.7 mph 56 % 0.0 in 0.0 W/m2 CLR
21:56 20.6 °F 11.4 °F 1013.8 in WSW 18.5 mph 18.5 mph 56 % 0.0 in 0.0 W/m2 CLR
22:01 21.1 °F 12.0 °F 1013.8 in SW 20.4 mph 20.4 mph 56 % 0.0 in 0.0 W/m2 CLR
22:06 21.1 °F 12.0 °F 1014.1 in SW 16.7 mph 16.7 mph 56 % 0.0 in 0.0 W/m2 CLR
22:11 21.1 °F 12.0 °F 1014.1 in WSW 18.5 mph 18.5 mph 56 % 0.0 in 0.0 W/m2 CLR
22:16 21.1 °F 12.0 °F 1014.1 in SW 18.5 mph 18.5 mph 56 % 0.0 in 0.0 W/m2 CLR
22:21 21.1 °F 12.3 °F 1014.1 in SW 16.7 mph 16.7 mph 57 % 0.0 in 0.0 W/m2 CLR
22:26 21.1 °F 12.3 °F 1014.4 in SW 22.5 mph 22.5 mph 57 % 0.0 in 0.0 W/m2 CLR
22:31 20.6 °F 11.7 °F 1014.4 in West 20.9 mph 20.9 mph 57 % 0.0 in 0.0 W/m2 CLR
22:36 20.6 °F 11.7 °F 1014.4 in SW 29.6 mph 29.6 mph 57 % 0.0 in 0.0 W/m2 CLR
22:41 20.6 °F 11.7 °F 1014.4 in WSW 27.8 mph 27.8 mph 57 % 0.0 in 0.0 W/m2 CLR
22:46 20.6 °F 11.7 °F 1014.4 in WSW 22.2 mph 22.2 mph 57 % 0.0 in 0.0 W/m2 CLR
22:51 20.6 °F 12.0 °F 1014.4 in WSW 20.4 mph 20.4 mph 58 % 0.0 in 0.0 W/m2 CLR
22:56 20.0 °F 11.5 °F 1014.4 in WSW 18.5 mph 18.5 mph 58 % 0.0 in 0.0 W/m2 CLR
23:01 20.0 °F 11.5 °F 1014.4 in SSW 18.5 mph 18.5 mph 58 % 0.0 in 0.0 W/m2 CLR
23:06 20.0 °F 11.5 °F 1014.4 in SW 13.0 mph 13.0 mph 58 % 0.0 in 0.0 W/m2 CLR
23:11 20.0 °F 11.7 °F 1014.8 in SSW 11.3 mph 11.3 mph 59 % 0.0 in 0.0 W/m2 CLR
23:16 19.4 °F 11.2 °F 1014.8 in SW 14.5 mph 14.5 mph 59 % 0.0 in 0.0 W/m2 CLR
23:21 19.4 °F 11.2 °F 1014.8 in SSW 14.8 mph 14.8 mph 59 % 0.0 in 0.0 W/m2 CLR
23:26 19.4 °F 11.2 °F 1014.8 in SSW 18.5 mph 18.5 mph 59 % 0.0 in 0.0 W/m2 CLR
23:31 19.4 °F 11.5 °F 1014.8 in SSW 11.3 mph 11.3 mph 60 % 0.0 in 0.0 W/m2 CLR
23:36 19.4 °F 11.5 °F 1014.8 in SSW 16.7 mph 16.7 mph 60 % 0.0 in 0.0 W/m2 CLR
23:41 19.4 °F 11.5 °F 1014.8 in SSW 13.0 mph 13.0 mph 60 % 0.0 in 0.0 W/m2 CLR
23:46 19.4 °F 11.5 °F 1014.8 in SSW 18.5 mph 18.5 mph 60 % 0.0 in 0.0 W/m2 CLR
23:51 18.9 °F 11.2 °F 1015.1 in SSW 16.7 mph 16.7 mph 61 % 0.0 in 0.0 W/m2 CLR
23:56 18.9 °F 11.2 °F 1015.1 in SSW 14.8 mph 14.8 mph 61 % 0.0 in 0.0 W/m2 CLR
Lo Temps de Massalio
Compliments of Weather Underground - 1.25 mb